Time;durP1;ratioP1;P1;durP2;ratioP2;P2;SDS_P1;SDS_P2;PMS_P1;PMS_P2;Temp;Humidity;BMP_temperature;BMP_pressure;BME280_temperature;BME280_humidity;BME280_pressure;Samples;Min_cycle;Max_cycle;Signal;HPM_P1;HPM_P2
2023/11/30 00:00:16;;;;;;;6.80;3.83;;;5.10;99.90;;;;;;3934123;30;20680;-93
2023/11/30 00:02:17;;;;;;;8.37;3.50;;;5.10;99.90;;;;;;3949032;30;20185;-93
2023/11/30 00:04:17;;;;;;;8.20;3.90;;;5.10;99.90;;;;;;3919500;30;20187;-93
2023/11/30 00:06:18;;;;;;;8.43;3.80;;;5.20;99.90;;;;;;3934225;30;20309;-93
2023/11/30 00:08:19;;;;;;;7.37;3.70;;;5.20;99.90;;;;;;3963301;30;20181;-92
2023/11/30 00:10:20;;;;;;;8.23;4.00;;;5.20;99.90;;;;;;3919347;30;20206;-93
2023/11/30 00:12:21;;;;;;;10.20;4.57;;;5.20;99.90;;;;;;3919375;30;20343;-94
2023/11/30 00:14:21;;;;;;;7.97;3.93;;;5.20;99.90;;;;;;3934093;30;20251;-93
2023/11/30 00:16:22;;;;;;;11.27;3.27;;;5.30;99.90;;;;;;3963545;30;20655;-93
2023/11/30 00:18:23;;;;;;;7.23;3.87;;;5.30;99.90;;;;;;3933899;30;20210;-92
2023/11/30 00:20:24;;;;;;;6.10;3.57;;;5.20;99.90;;;;;;3933870;30;20576;-93
2023/11/30 00:22:25;;;;;;;6.57;3.53;;;5.20;99.90;;;;;;3963255;29;20185;-93
2023/11/30 00:24:26;;;;;;;6.90;3.73;;;5.20;99.90;;;;;;3919208;30;20183;-93
2023/11/30 00:26:26;;;;;;;9.40;4.47;;;5.10;99.90;;;;;;3919203;30;20195;-93
2023/11/30 00:28:32;;;;;;;9.10;4.13;;;5.20;99.90;;;;;;3933894;30;20193;-93
2023/11/30 00:30:32;;;;;;;11.40;4.77;;;5.10;99.90;;;;;;3933711;30;20198;-92
2023/11/30 00:32:35;;;;;;;9.63;3.77;;;5.20;99.90;;;;;;3933837;30;20186;-93
2023/11/30 00:34:36;;;;;;;6.80;3.53;;;5.30;99.90;;;;;;3919305;30;20557;-96
2023/11/30 00:36:37;;;;;;;7.97;3.37;;;5.30;99.90;;;;;;3948006;30;20189;-92
2023/11/30 00:38:38;;;;;;;11.30;4.33;;;5.30;99.90;;;;;;3933377;30;20213;-93
2023/11/30 00:40:39;;;;;;;7.37;3.27;;;5.30;99.90;;;;;;3918857;30;20278;-92
2023/11/30 00:42:40;;;;;;;8.07;3.43;;;5.30;99.90;;;;;;3933522;30;20276;-93
2023/11/30 00:44:40;;;;;;;6.40;3.20;;;5.30;99.90;;;;;;3948023;30;20212;-92
2023/11/30 00:46:41;;;;;;;11.03;3.50;;;5.30;99.90;;;;;;3918792;30;20186;-94
2023/11/30 00:48:42;;;;;;;10.77;4.37;;;5.20;99.90;;;;;;3948197;30;20567;-92
2023/11/30 00:50:44;;;;;;;7.10;3.13;;;5.20;99.90;;;;;;3933604;30;20185;-92
2023/11/30 00:52:45;;;;;;;8.00;3.87;;;5.10;99.90;;;;;;3918913;30;20274;-92
2023/11/30 00:54:46;;;;;;;8.60;4.33;;;5.10;99.90;;;;;;3948028;30;20686;-92
2023/11/30 00:56:46;;;;;;;7.03;3.63;;;5.10;99.90;;;;;;3919082;30;20233;-92
2023/11/30 00:58:47;;;;;;;10.63;4.67;;;5.10;99.90;;;;;;3948075;30;20222;-94
2023/11/30 01:00:48;;;;;;;11.87;4.67;;;5.00;99.90;;;;;;3933303;30;20235;-93
2023/11/30 01:02:49;;;;;;;8.70;4.30;;;5.10;99.90;;;;;;3919073;30;20183;-94
2023/11/30 01:04:50;;;;;;;8.40;3.60;;;5.10;99.90;;;;;;3933353;30;20213;-93
2023/11/30 01:06:51;;;;;;;13.00;4.03;;;5.00;99.90;;;;;;3933218;30;20186;-93
2023/11/30 01:08:52;;;;;;;5.97;3.57;;;5.00;99.90;;;;;;3918457;30;20190;-94
2023/11/30 01:10:53;;;;;;;6.73;3.37;;;5.00;99.90;;;;;;3918830;30;20187;-92
2023/11/30 01:12:54;;;;;;;7.73;3.70;;;5.00;99.90;;;;;;3918694;30;20179;-93
2023/11/30 01:14:55;;;;;;;8.20;3.93;;;4.90;99.90;;;;;;3962570;30;20622;-93
2023/11/30 01:16:56;;;;;;;9.53;4.27;;;4.80;99.90;;;;;;3933237;30;20282;-93
2023/11/30 01:18:56;;;;;;;15.57;4.83;;;4.80;99.90;;;;;;3932879;30;20225;-92
2023/11/30 01:20:57;;;;;;;9.20;4.00;;;4.80;99.90;;;;;;3933289;30;20174;-93
2023/11/30 01:22:59;;;;;;;10.67;3.90;;;4.80;99.90;;;;;;3933206;30;20194;-93
2023/11/30 01:24:59;;;;;;;7.10;3.73;;;4.90;99.90;;;;;;3918504;30;20315;-94
2023/11/30 01:27:00;;;;;;;11.80;4.50;;;4.90;99.90;;;;;;3932999;30;20186;-92
2023/11/30 01:29:01;;;;;;;8.47;4.13;;;4.90;99.90;;;;;;3947511;30;20238;-93
2023/11/30 01:31:02;;;;;;;6.40;3.90;;;4.90;99.90;;;;;;3918203;30;20300;-94
2023/11/30 01:33:03;;;;;;;8.43;4.20;;;4.90;99.90;;;;;;3947807;30;20654;-92
2023/11/30 01:35:06;;;;;;;7.83;4.43;;;4.90;99.90;;;;;;3933002;30;20182;-92
2023/11/30 01:37:07;;;;;;;8.23;4.13;;;4.90;99.90;;;;;;3947817;30;20655;-93
2023/11/30 01:39:07;;;;;;;9.50;4.23;;;4.90;99.90;;;;;;3918196;30;20230;-93
2023/11/30 01:41:08;;;;;;;8.20;4.00;;;4.80;99.90;;;;;;3918365;30;20179;-92
2023/11/30 01:43:10;;;;;;;7.17;3.17;;;4.70;99.90;;;;;;3962382;29;20181;-94
2023/11/30 01:45:11;;;;;;;8.77;3.97;;;4.70;99.90;;;;;;3947620;30;20181;-93
2023/11/30 01:47:12;;;;;;;7.10;3.43;;;4.70;99.90;;;;;;3918217;30;20244;-92
2023/11/30 01:49:13;;;;;;;9.37;4.50;;;4.70;99.90;;;;;;3917306;30;20206;-92
2023/11/30 01:51:15;;;;;;;12.20;4.57;;;4.80;99.90;;;;;;3947532;30;20189;-93
2023/11/30 01:53:16;;;;;;;6.57;2.87;;;4.80;99.90;;;;;;3932682;30;20190;-92
2023/11/30 01:55:17;;;;;;;6.77;3.83;;;4.80;99.90;;;;;;3918158;30;20276;-93
2023/11/30 01:57:18;;;;;;;9.27;4.33;;;4.80;99.90;;;;;;3918138;30;20187;-92
2023/11/30 01:59:20;;;;;;;11.93;4.77;;;4.80;99.90;;;;;;3932464;30;20262;-92
2023/11/30 02:01:24;;;;;;;10.13;4.40;;;4.70;99.90;;;;;;3917775;30;20184;-93
2023/11/30 02:03:26;;;;;;;5.80;3.07;;;4.70;99.90;;;;;;3918089;30;20281;-93
2023/11/30 02:05:27;;;;;;;9.83;3.97;;;4.60;99.90;;;;;;3947466;30;20197;-93
2023/11/30 02:07:28;;;;;;;8.37;3.80;;;4.70;99.90;;;;;;3932607;30;20186;-93
2023/11/30 02:09:29;;;;;;;12.83;5.07;;;4.70;99.90;;;;;;3917733;30;20294;-94
2023/11/30 02:11:31;;;;;;;6.13;3.93;;;4.80;99.90;;;;;;3932022;30;20623;-93
2023/11/30 02:13:31;;;;;;;7.00;3.30;;;4.70;99.90;;;;;;3918024;30;20336;-92
2023/11/30 02:15:32;;;;;;;10.27;3.83;;;4.30;99.90;;;;;;3932505;30;20194;-93
2023/11/30 02:17:33;;;;;;;9.17;3.73;;;4.00;99.90;;;;;;3962002;29;20235;-92
2023/11/30 02:19:34;;;;;;;7.80;3.80;;;4.20;99.90;;;;;;3918101;30;20337;-93
2023/11/30 02:21:35;;;;;;;15.00;4.40;;;4.10;99.90;;;;;;3918006;30;20183;-93
2023/11/30 02:23:36;;;;;;;7.90;3.10;;;3.80;99.90;;;;;;3932458;30;20197;-92
2023/11/30 02:25:37;;;;;;;6.80;3.53;;;3.80;99.90;;;;;;3961971;29;20180;-93
2023/11/30 02:27:38;;;;;;;7.67;3.33;;;3.70;99.90;;;;;;3918015;30;20550;-92
2023/11/30 02:29:39;;;;;;;10.67;4.47;;;3.70;99.90;;;;;;3932336;30;20216;-92
2023/11/30 02:31:39;;;;;;;8.40;4.27;;;3.70;99.90;;;;;;3932224;30;20239;-93
2023/11/30 02:33:40;;;;;;;14.30;4.00;;;3.90;99.90;;;;;;3947114;30;20173;-92
2023/11/30 02:35:41;;;;;;;8.80;3.50;;;4.10;99.90;;;;;;3917645;30;20214;-93
2023/11/30 02:37:42;;;;;;;6.73;3.70;;;4.40;99.90;;;;;;3946758;30;20181;-94
2023/11/30 02:39:43;;;;;;;9.27;3.80;;;5.10;99.90;;;;;;3932255;30;20696;-91
2023/11/30 02:41:44;;;;;;;8.80;4.33;;;5.10;99.90;;;;;;3932262;30;20182;-94
2023/11/30 02:43:45;;;;;;;7.73;3.93;;;4.70;99.90;;;;;;3961763;29;20250;-92
2023/11/30 02:45:45;;;;;;;16.00;5.07;;;4.50;99.90;;;;;;3917642;30;20214;-93
2023/11/30 02:47:46;;;;;;;6.97;4.13;;;4.80;99.90;;;;;;3917859;30;20191;-92
2023/11/30 02:49:47;;;;;;;9.97;4.57;;;5.00;99.90;;;;;;3932305;30;20198;-94
2023/11/30 02:51:48;;;;;;;15.33;4.90;;;5.20;99.90;;;;;;3961871;29;20180;-93
2023/11/30 02:53:49;;;;;;;9.07;3.80;;;5.20;99.90;;;;;;3932332;30;20183;-93
2023/11/30 02:55:50;;;;;;;10.67;4.93;;;5.10;99.90;;;;;;3932090;30;20191;-92
2023/11/30 02:57:50;;;;;;;9.97;4.33;;;5.00;99.90;;;;;;3961751;30;20181;-92
2023/11/30 02:59:51;;;;;;;8.53;4.13;;;5.20;99.90;;;;;;3917761;30;20681;-92
2023/11/30 03:01:52;;;;;;;9.57;3.53;;;5.40;99.90;;;;;;3949673;30;20247;-93
2023/11/30 03:03:53;;;;;;;8.20;4.20;;;5.20;99.90;;;;;;3935021;30;20547;-93
2023/11/30 03:05:55;;;;;;;10.57;4.67;;;4.90;99.90;;;;;;3935076;30;20193;-93
2023/11/30 03:07:55;;;;;;;12.77;5.07;;;4.70;99.90;;;;;;3920345;30;20202;-93
2023/11/30 03:09:56;;;;;;;8.50;4.83;;;4.80;99.90;;;;;;3934774;30;20199;-92
2023/11/30 03:11:57;;;;;;;7.40;3.37;;;5.10;99.90;;;;;;3949638;30;20216;-92
2023/11/30 03:13:58;;;;;;;10.83;3.53;;;4.80;99.90;;;;;;3920332;30;20187;-93
2023/11/30 03:15:59;;;;;;;12.23;5.67;;;4.50;99.90;;;;;;3934956;30;20187;-93
2023/11/30 03:18:00;;;;;;;9.47;4.27;;;4.60;99.90;;;;;;3964432;29;20177;-92
2023/11/30 03:20:00;;;;;;;7.40;4.10;;;4.70;99.90;;;;;;3934592;30;20252;-93
2023/11/30 03:22:01;;;;;;;10.10;3.80;;;4.80;99.90;;;;;;3934758;30;20171;-93
2023/11/30 03:24:04;;;;;;;8.73;4.80;;;4.80;99.90;;;;;;3934842;30;20194;-93
2023/11/30 03:26:05;;;;;;;9.87;4.57;;;5.10;99.90;;;;;;3920338;30;20191;-92
2023/11/30 03:28:06;;;;;;;7.90;4.10;;;5.60;99.90;;;;;;3949561;30;20178;-93
2023/11/30 03:30:07;;;;;;;8.03;4.50;;;6.00;99.90;;;;;;3920073;30;20227;-93
2023/11/30 03:32:08;;;;;;;10.37;4.10;;;6.10;99.90;;;;;;3949384;30;20639;-93
2023/11/30 03:34:09;;;;;;;11.47;5.27;;;5.80;99.90;;;;;;3920025;30;20563;-92
2023/11/30 03:36:10;;;;;;;13.23;4.43;;;5.50;99.90;;;;;;3920079;30;20187;-93
2023/11/30 03:38:12;;;;;;;9.40;4.30;;;5.70;99.90;;;;;;3949118;30;20740;-92
2023/11/30 03:40:13;;;;;;;7.57;3.27;;;5.60;99.90;;;;;;3919971;30;20215;-92
2023/11/30 03:42:14;;;;;;;10.87;4.57;;;5.40;99.90;;;;;;3934508;30;20183;-93
2023/11/30 03:44:15;;;;;;;8.97;4.20;;;5.10;99.90;;;;;;3949169;30;20186;-92
2023/11/30 03:46:16;;;;;;;16.10;4.23;;;4.80;99.90;;;;;;3949183;30;20182;-92
2023/11/30 03:48:17;;;;;;;8.23;4.13;;;4.70;99.90;;;;;;3934571;30;20183;-93
2023/11/30 03:50:17;;;;;;;9.70;4.37;;;4.70;99.90;;;;;;3934253;30;20661;-93
2023/11/30 03:52:18;;;;;;;11.97;4.13;;;4.60;99.90;;;;;;3949061;30;20181;-93
2023/11/30 03:54:19;;;;;;;10.90;4.37;;;4.60;99.90;;;;;;3949096;30;20624;-93
2023/11/30 03:56:21;;;;;;;9.97;4.80;;;4.50;99.90;;;;;;3934268;30;20190;-92
2023/11/30 03:58:22;;;;;;;11.47;4.53;;;4.40;99.90;;;;;;3934214;30;20664;-93
2023/11/30 04:00:23;;;;;;;7.23;3.90;;;4.50;99.90;;;;;;3948514;30;20247;-94
2023/11/30 04:02:24;;;;;;;8.50;4.03;;;5.00;99.90;;;;;;3919684;30;20277;-93
2023/11/30 04:04:25;;;;;;;11.70;4.57;;;5.10;99.90;;;;;;3919736;30;20194;-93
2023/11/30 04:06:26;;;;;;;9.83;4.50;;;5.40;99.90;;;;;;3919796;30;20236;-92
2023/11/30 04:08:27;;;;;;;7.93;3.90;;;5.70;99.90;;;;;;3963612;30;20184;-93
2023/11/30 04:10:28;;;;;;;9.57;4.30;;;5.80;99.90;;;;;;3919524;30;20232;-94
2023/11/30 04:12:28;;;;;;;11.93;4.47;;;5.50;99.90;;;;;;3947715;30;20613;-93
2023/11/30 04:14:29;;;;;;;10.77;4.80;;;5.10;99.90;;;;;;3934222;30;20174;-93
2023/11/30 04:16:30;;;;;;;14.77;4.30;;;4.70;99.90;;;;;;3948672;30;20272;-95
2023/11/30 04:18:31;;;;;;;11.47;5.00;;;4.50;99.90;;;;;;3919278;30;20186;-93
2023/11/30 04:20:32;;;;;;;6.63;4.13;;;4.40;99.90;;;;;;3919583;30;20203;-93
2023/11/30 04:22:33;;;;;;;5.17;3.33;;;4.30;99.90;;;;;;3948697;30;20186;-93
2023/11/30 04:24:34;;;;;;;11.40;3.90;;;4.40;99.90;;;;;;3934065;30;20197;-93
2023/11/30 04:26:35;;;;;;;5.03;3.10;;;4.70;99.90;;;;;;3948579;30;20208;-93
2023/11/30 04:28:36;;;;;;;9.03;4.73;;;4.80;99.90;;;;;;3948679;30;20679;-93
2023/11/30 04:30:37;;;;;;;8.80;4.10;;;4.80;99.90;;;;;;3919091;30;20264;-94
2023/11/30 04:32:38;;;;;;;9.27;3.53;;;5.10;99.90;;;;;;3948322;30;20229;-94
2023/11/30 04:34:39;;;;;;;9.67;4.33;;;5.40;99.90;;;;;;3948130;30;20178;-94
2023/11/30 04:36:41;;;;;;;8.70;5.13;;;5.80;99.90;;;;;;3918808;30;20191;-92
2023/11/30 04:38:41;;;;;;;7.13;3.77;;;5.80;99.90;;;;;;3933493;30;20751;-94
2023/11/30 04:40:42;;;;;;;6.77;3.57;;;5.10;99.90;;;;;;3933534;30;20210;-92
2023/11/30 04:42:43;;;;;;;12.67;4.37;;;4.60;99.90;;;;;;3933603;30;20281;-93
2023/11/30 04:44:45;;;;;;;8.53;3.87;;;4.10;99.90;;;;;;3933508;30;20183;-93
2023/11/30 04:46:46;;;;;;;8.73;4.87;;;3.90;99.90;;;;;;3933435;30;20241;-92
2023/11/30 04:48:48;;;;;;;11.13;4.23;;;3.60;99.90;;;;;;3948106;30;20220;-93
2023/11/30 04:50:49;;;;;;;7.50;3.80;;;3.40;99.90;;;;;;3919026;30;20175;-93
2023/11/30 04:52:50;;;;;;;13.60;4.67;;;3.30;99.90;;;;;;3918834;30;20218;-93
2023/11/30 04:54:51;;;;;;;9.03;4.17;;;3.20;99.90;;;;;;3933326;30;20198;-92
2023/11/30 04:56:52;;;;;;;6.77;3.90;;;3.20;99.90;;;;;;3962815;30;20197;-93
2023/11/30 04:58:52;;;;;;;7.97;3.40;;;3.10;99.90;;;;;;3918787;30;20218;-93
2023/11/30 05:00:53;;;;;;;9.53;4.23;;;3.10;99.90;;;;;;3947856;29;20185;-93
2023/11/30 05:02:57;;;;;;;11.60;4.87;;;3.10;99.90;;;;;;3933397;30;20190;-93
2023/11/30 05:04:58;;;;;;;16.30;3.53;;;3.30;99.90;;;;;;3918662;30;20190;-93
2023/11/30 05:06:59;;;;;;;9.30;4.67;;;3.20;99.90;;;;;;3918392;30;20277;-94
2023/11/30 05:09:00;;;;;;;8.97;3.23;;;3.20;99.90;;;;;;3947895;30;20212;-93
2023/11/30 05:11:00;;;;;;;9.70;4.07;;;3.40;99.90;;;;;;3947949;30;20184;-94
2023/11/30 05:13:01;;;;;;;14.87;4.43;;;3.70;99.90;;;;;;3933279;30;20187;-93
2023/11/30 05:15:03;;;;;;;8.30;4.00;;;4.00;99.90;;;;;;3918517;30;20175;-92
2023/11/30 05:17:04;;;;;;;5.90;3.13;;;4.40;99.90;;;;;;3933325;30;20664;-92
2023/11/30 05:19:05;;;;;;;9.30;3.87;;;4.30;99.90;;;;;;3932981;30;20328;-92
2023/11/30 05:21:06;;;;;;;10.53;4.87;;;4.20;99.90;;;;;;3947978;30;20268;-93
2023/11/30 05:23:07;;;;;;;6.60;4.00;;;4.20;99.90;;;;;;3947809;30;20280;-93
2023/11/30 05:25:08;;;;;;;12.97;4.00;;;4.30;99.90;;;;;;3918470;30;20213;-93
2023/11/30 05:27:09;;;;;;;15.20;5.07;;;4.30;99.90;;;;;;3933283;30;20695;-93
2023/11/30 05:29:10;;;;;;;10.27;4.80;;;4.00;99.90;;;;;;3947896;30;20193;-93
2023/11/30 05:31:10;;;;;;;11.33;5.03;;;3.80;99.90;;;;;;3918609;30;20232;-93
2023/11/30 05:33:11;;;;;;;9.27;4.47;;;3.80;99.90;;;;;;3947804;30;20250;-93
2023/11/30 05:35:12;;;;;;;7.40;3.63;;;3.60;99.90;;;;;;3932850;30;20205;-93
2023/11/30 05:37:13;;;;;;;9.20;4.77;;;3.60;99.90;;;;;;3947595;30;20185;-93
2023/11/30 05:39:15;;;;;;;7.03;3.97;;;3.40;99.90;;;;;;3918219;30;20693;-93
2023/11/30 05:41:16;;;;;;;6.33;3.50;;;3.30;99.90;;;;;;3918785;30;20187;-94
2023/11/30 05:43:17;;;;;;;8.57;4.30;;;3.30;99.90;;;;;;3918341;30;20326;-93
2023/11/30 05:45:18;;;;;;;8.23;3.83;;;3.20;99.90;;;;;;3918367;30;20179;-93
2023/11/30 05:47:21;;;;;;;8.30;3.30;;;3.20;99.90;;;;;;3932938;30;20182;-94
2023/11/30 05:49:22;;;;;;;6.37;2.97;;;3.40;99.90;;;;;;3947456;30;20213;-93
2023/11/30 05:51:22;;;;;;;5.23;2.73;;;3.50;99.90;;;;;;3918329;30;20282;-92
2023/11/30 05:53:23;;;;;;;7.00;3.27;;;3.80;99.90;;;;;;3932750;30;20267;-93
2023/11/30 05:55:24;;;;;;;5.93;2.87;;;4.30;99.90;;;;;;3962147;30;20184;-93
2023/11/30 05:57:25;;;;;;;8.80;3.87;;;4.60;99.90;;;;;;3947556;30;20186;-92
2023/11/30 05:59:26;;;;;;;6.30;2.80;;;5.00;99.90;;;;;;3917945;30;20238;-93
2023/11/30 06:01:27;;;;;;;11.33;3.97;;;5.30;99.90;;;;;;3917839;30;20191;-92
2023/11/30 06:03:27;;;;;;;10.07;3.80;;;5.60;99.90;;;;;;3947474;30;20245;-92
2023/11/30 06:05:28;;;;;;;14.67;4.40;;;5.60;99.90;;;;;;3917785;30;20277;-92
2023/11/30 06:07:29;;;;;;;8.70;5.57;;;5.40;99.90;;;;;;3947377;30;20178;-90
2023/11/30 06:09:30;;;;;;;6.40;3.63;;;5.20;99.90;;;;;;3947253;30;20202;-90
2023/11/30 06:11:31;;;;;;;11.03;3.60;;;4.80;99.90;;;;;;3917852;30;20604;-90
2023/11/30 06:13:32;;;;;;;8.10;3.23;;;4.70;99.90;;;;;;3947011;30;20273;-90
2023/11/30 06:15:32;;;;;;;8.30;3.47;;;4.60;99.90;;;;;;3917749;30;20546;-90
2023/11/30 06:17:33;;;;;;;7.07;3.30;;;4.60;99.90;;;;;;3932377;30;20198;-92
2023/11/30 06:19:34;;;;;;;9.07;3.60;;;4.60;99.90;;;;;;3961851;29;20217;-90
2023/11/30 06:21:38;;;;;;;4.80;2.90;;;4.40;99.90;;;;;;3932434;30;20182;-90
2023/11/30 06:23:38;;;;;;;4.80;2.87;;;4.10;99.90;;;;;;3932553;30;20182;-91
2023/11/30 06:25:39;;;;;;;7.40;2.60;;;4.10;99.90;;;;;;3932364;30;20182;-91
2023/11/30 06:27:40;;;;;;;4.73;2.60;;;4.10;99.90;;;;;;3917737;30;20191;-91
2023/11/30 06:29:41;;;;;;;4.07;2.23;;;4.10;99.90;;;;;;3917561;30;20294;-91
2023/11/30 06:31:42;;;;;;;6.97;2.80;;;3.90;99.90;;;;;;3917709;30;20193;-91
2023/11/30 06:33:43;;;;;;;5.33;2.83;;;3.90;99.90;;;;;;3961794;29;20276;-91
2023/11/30 06:35:44;;;;;;;6.97;3.63;;;3.90;99.90;;;;;;3917229;30;20187;-90
2023/11/30 06:37:45;;;;;;;6.43;2.63;;;3.80;99.90;;;;;;3947168;30;20590;-91
2023/11/30 06:39:45;;;;;;;5.47;2.23;;;3.80;99.90;;;;;;3932000;30;20250;-91
2023/11/30 06:41:47;;;;;;;3.03;2.20;;;3.70;99.90;;;;;;3932384;30;20698;-91
2023/11/30 06:43:48;;;;;;;4.80;3.17;;;3.80;99.90;;;;;;3932148;29;20205;-91
2023/11/30 06:45:49;;;;;;;5.43;2.57;;;3.80;99.90;;;;;;3947018;30;20189;-91
2023/11/30 06:47:50;;;;;;;8.47;4.23;;;3.70;99.90;;;;;;3917615;30;20337;-92
2023/11/30 06:49:51;;;;;;;4.07;2.47;;;3.40;99.90;;;;;;3932122;30;20207;-92
2023/11/30 06:51:52;;;;;;;3.77;1.93;;;3.10;99.90;;;;;;3947040;30;20231;-89
2023/11/30 06:53:53;;;;;;;6.93;3.43;;;3.00;99.90;;;;;;3917782;30;20248;-90
2023/11/30 06:55:53;;;;;;;5.47;2.73;;;3.30;99.90;;;;;;3917993;30;20580;-91
2023/11/30 06:57:54;;;;;;;36.87;3.77;;;3.40;99.90;;;;;;3932378;30;20243;-91
2023/11/30 06:59:55;;;;;;;7.07;3.00;;;4.00;99.90;;;;;;3961470;30;20563;-92
2023/11/30 07:01:56;;;;;;;5.27;2.90;;;4.20;99.90;;;;;;3917385;30;20243;-91
2023/11/30 07:03:56;;;;;;;11.80;3.53;;;4.40;99.90;;;;;;3946701;30;20239;-91
2023/11/30 07:05:57;;;;;;;6.33;3.53;;;4.50;99.90;;;;;;3917736;30;20175;-90
2023/11/30 07:07:58;;;;;;;5.33;2.63;;;4.60;99.90;;;;;;3917315;30;20665;-91
2023/11/30 07:10:00;;;;;;;7.57;3.03;;;4.20;99.90;;;;;;3931993;30;20215;-91
2023/11/30 07:12:00;;;;;;;7.20;2.70;;;3.40;99.90;;;;;;3917672;30;20187;-91
2023/11/30 07:14:02;;;;;;;5.17;2.60;;;2.90;99.90;;;;;;3931928;30;20594;-91
2023/11/30 07:16:03;;;;;;;5.23;2.07;;;2.70;99.90;;;;;;3946747;30;20177;-94
2023/11/30 07:18:04;;;;;;;4.33;2.33;;;2.50;99.90;;;;;;3932038;30;20186;-91
2023/11/30 07:20:06;;;;;;;3.53;2.17;;;2.90;99.90;;;;;;3917393;30;20636;-91
2023/11/30 07:22:08;;;;;;;2.10;1.53;;;3.30;99.90;;;;;;3917604;30;20194;-89
2023/11/30 07:24:09;;;;;;;4.90;2.63;;;3.20;99.90;;;;;;3917686;30;20189;-90
2023/11/30 07:26:13;;;;;;;13.23;2.83;;;2.90;99.90;;;;;;3931993;30;20190;-91
2023/11/30 07:28:14;;;;;;;4.70;2.13;;;3.00;99.90;;;;;;3932110;30;20179;-92
2023/11/30 07:30:15;;;;;;;5.10;2.33;;;3.20;99.90;;;;;;3931954;30;20206;-91
2023/11/30 07:32:16;;;;;;;3.93;2.50;;;3.10;99.90;;;;;;3931876;30;20182;-91
2023/11/30 07:34:17;;;;;;;4.13;2.10;;;2.80;99.90;;;;;;3946691;30;20189;-91
2023/11/30 07:36:18;;;;;;;3.10;1.57;;;3.10;99.90;;;;;;3917311;30;20265;-91
2023/11/30 07:38:19;;;;;;;4.57;2.67;;;3.20;99.90;;;;;;3917429;30;20199;-92
2023/11/30 07:40:21;;;;;;;4.90;2.97;;;3.50;99.90;;;;;;3946350;30;20214;-91
2023/11/30 07:42:22;;;;;;;2.83;1.87;;;3.30;99.90;;;;;;3946439;30;20185;-92
2023/11/30 07:44:23;;;;;;;5.53;2.60;;;2.90;99.90;;;;;;3931993;30;20704;-92
2023/11/30 07:46:24;;;;;;;4.90;2.27;;;2.90;99.90;;;;;;3931844;30;20195;-91
2023/11/30 07:48:25;;;;;;;3.73;2.33;;;3.00;99.90;;;;;;3934226;30;20204;-92
2023/11/30 07:50:29;;;;;;;10.53;2.20;;;3.60;99.90;;;;;;3948913;30;20206;-91
2023/11/30 07:52:31;;;;;;;9.93;2.43;;;3.80;99.90;;;;;;3949197;30;20177;-92
2023/11/30 07:54:31;;;;;;;3.13;1.80;;;4.10;99.90;;;;;;3934350;30;20214;-91
2023/11/30 07:56:32;;;;;;;3.03;1.47;;;4.20;99.90;;;;;;3934577;30;20193;-91
2023/11/30 07:58:33;;;;;;;10.10;2.17;;;4.30;99.90;;;;;;3934261;30;20633;-91
2023/11/30 08:00:34;;;;;;;3.20;2.00;;;4.10;99.90;;;;;;3919567;30;20243;-91
2023/11/30 08:02:35;;;;;;;4.27;2.17;;;4.00;99.90;;;;;;3948813;30;20184;-91
2023/11/30 08:04:36;;;;;;;4.53;2.63;;;3.70;99.90;;;;;;3919584;30;20175;-92
2023/11/30 08:06:39;;;;;;;4.73;2.60;;;3.40;99.90;;;;;;3963567;30;20551;-91
2023/11/30 08:08:39;;;;;;;3.97;1.73;;;3.30;99.90;;;;;;3949420;30;20190;-92
2023/11/30 08:10:40;;;;;;;5.03;1.97;;;3.10;99.90;;;;;;3919446;30;20187;-92
2023/11/30 08:12:41;;;;;;;27.47;3.80;;;3.00;99.90;;;;;;3948598;30;20179;-91
2023/11/30 08:14:42;;;;;;;2.13;1.23;;;3.60;99.90;;;;;;3934189;30;20209;-91
2023/11/30 08:16:43;;;;;;;5.93;2.47;;;4.10;99.90;;;;;;3934405;30;20545;-89
2023/11/30 08:18:43;;;;;;;3.90;2.20;;;4.20;99.90;;;;;;3963597;30;20584;-91
2023/11/30 08:20:44;;;;;;;4.57;2.23;;;4.30;99.90;;;;;;3934283;30;20190;-91
2023/11/30 08:22:45;;;;;;;8.63;2.13;;;4.10;99.90;;;;;;3933997;30;20185;-90
2023/11/30 08:24:46;;;;;;;7.77;1.37;;;4.30;99.90;;;;;;3934050;30;20179;-91
2023/11/30 08:26:47;;;;;;;2.60;1.77;;;4.40;99.90;;;;;;3933990;30;20186;-94
2023/11/30 08:28:50;;;;;;;6.23;2.70;;;4.40;99.90;;;;;;3933691;30;20299;-91
2023/11/30 08:30:51;;;;;;;6.83;3.40;;;4.20;99.90;;;;;;3933594;30;20627;-92
2023/11/30 08:32:52;;;;;;;7.90;2.23;;;4.10;99.90;;;;;;3948434;30;20184;-91
2023/11/30 08:34:53;;;;;;;7.33;2.73;;;4.20;99.90;;;;;;3919187;30;20273;-92
2023/11/30 08:36:53;;;;;;;5.27;2.43;;;3.80;99.90;;;;;;3933772;30;20228;-91
2023/11/30 08:38:54;;;;;;;5.53;2.13;;;4.00;99.90;;;;;;3963041;29;20231;-91
2023/11/30 08:40:55;;;;;;;4.67;2.37;;;4.20;99.90;;;;;;3948350;30;20186;-92
2023/11/30 08:42:56;;;;;;;4.63;1.83;;;4.10;99.90;;;;;;3918984;30;20558;-91
2023/11/30 08:44:57;;;;;;;5.17;2.27;;;3.90;99.90;;;;;;3948065;30;20190;-91
2023/11/30 08:46:58;;;;;;;2.23;1.93;;;4.10;99.90;;;;;;3948297;30;20586;-91
2023/11/30 08:48:58;;;;;;;4.23;2.40;;;4.40;99.90;;;;;;3919136;30;20775;-91
2023/11/30 08:50:59;;;;;;;2.60;1.77;;;4.70;99.90;;;;;;3948320;30;20185;-91
2023/11/30 08:53:00;;;;;;;4.83;1.80;;;4.80;99.90;;;;;;3933547;30;20182;-91
2023/11/30 08:55:01;;;;;;;4.67;2.20;;;4.70;99.90;;;;;;3919068;30;20230;-91
2023/11/30 08:57:03;;;;;;;9.20;2.37;;;4.50;99.90;;;;;;3962992;30;20189;-91
2023/11/30 08:59:04;;;;;;;4.70;1.70;;;4.30;99.90;;;;;;3947654;30;20689;-91
2023/11/30 09:01:06;;;;;;;3.77;2.17;;;4.10;99.90;;;;;;3918749;30;20190;-91
2023/11/30 09:03:07;;;;;;;9.30;2.33;;;3.70;99.90;;;;;;3933351;30;20186;-92
2023/11/30 09:05:09;;;;;;;6.93;1.77;;;3.40;99.90;;;;;;3933369;30;20544;-92
2023/11/30 09:07:10;;;;;;;5.37;2.07;;;3.50;99.90;;;;;;3933330;30;20215;-92
2023/11/30 09:09:11;;;;;;;10.93;2.27;;;4.00;99.90;;;;;;3918839;30;20211;-93
2023/11/30 09:11:12;;;;;;;5.27;2.77;;;4.00;99.90;;;;;;3918653;30;20252;-91
2023/11/30 09:13:13;;;;;;;3.63;1.93;;;3.80;99.90;;;;;;3918672;30;20190;-92
2023/11/30 09:15:14;;;;;;;4.43;1.77;;;3.80;99.90;;;;;;3962415;30;20181;-92
2023/11/30 09:17:14;;;;;;;14.67;1.80;;;3.80;99.90;;;;;;3918702;30;20182;-91
2023/11/30 09:19:15;;;;;;;4.93;1.80;;;3.60;99.90;;;;;;3947946;29;20221;-92
2023/11/30 09:21:16;;;;;;;11.93;2.07;;;3.30;99.90;;;;;;3918573;30;20688;-93
2023/11/30 09:23:17;;;;;;;9.30;2.97;;;3.10;99.90;;;;;;3963968;30;20234;-91
2023/11/30 09:25:18;;;;;;;5.00;2.07;;;3.00;99.90;;;;;;3918498;30;20194;-92
2023/11/30 09:27:19;;;;;;;17.30;3.67;;;2.90;99.90;;;;;;3918726;30;20183;-91
2023/11/30 09:29:20;;;;;;;4.60;2.40;;;2.90;99.90;;;;;;3947850;30;20367;-91
2023/11/30 09:31:21;;;;;;;8.47;3.47;;;2.90;99.90;;;;;;3932940;30;20183;-91
2023/11/30 09:33:22;;;;;;;7.47;3.37;;;2.90;99.90;;;;;;3918490;30;20187;-91
2023/11/30 09:35:24;;;;;;;7.53;2.80;;;2.80;99.90;;;;;;3962386;29;20188;-92
2023/11/30 09:37:24;;;;;;;17.20;2.73;;;2.90;99.90;;;;;;3932843;30;20593;-92
2023/11/30 09:39:25;;;;;;;5.07;2.70;;;2.90;99.90;;;;;;3932907;30;20229;-92
2023/11/30 09:41:26;;;;;;;6.57;2.70;;;2.90;99.90;;;;;;3933064;30;20182;-91
2023/11/30 09:43:28;;;;;;;7.57;2.63;;;3.00;99.90;;;;;;3933071;30;20213;-91
2023/11/30 09:45:29;;;;;;;4.80;2.77;;;3.10;99.90;;;;;;3932960;30;20190;-91
2023/11/30 09:47:31;;;;;;;4.97;1.70;;;3.20;99.90;;;;;;3947848;30;20190;-92
2023/11/30 09:49:32;;;;;;;15.00;2.60;;;3.20;99.90;;;;;;3918663;30;20218;-92
2023/11/30 09:51:34;;;;;;;4.53;2.60;;;3.10;99.90;;;;;;3933136;30;20183;-91
2023/11/30 09:53:35;;;;;;;11.50;2.33;;;3.10;99.90;;;;;;3933003;30;20596;-91
2023/11/30 09:55:37;;;;;;;9.73;2.70;;;3.20;99.90;;;;;;3947696;30;20249;-91
2023/11/30 09:57:37;;;;;;;3.57;1.70;;;3.10;99.90;;;;;;3918275;30;20191;-91
2023/11/30 09:59:38;;;;;;;6.10;2.67;;;3.30;99.90;;;;;;3932537;30;20280;-91
2023/11/30 10:01:40;;;;;;;5.67;2.43;;;3.50;99.90;;;;;;3947640;30;20251;-91
2023/11/30 10:03:41;;;;;;;4.10;1.77;;;3.60;99.90;;;;;;3932875;30;20187;-92
2023/11/30 10:05:42;;;;;;;7.87;2.70;;;3.60;99.90;;;;;;3932739;30;20174;-92
2023/11/30 10:07:43;;;;;;;2.20;1.53;;;3.50;99.90;;;;;;3918006;30;20661;-92
2023/11/30 10:09:44;;;;;;;7.60;2.70;;;3.40;99.90;;;;;;3946476;30;20233;-91
2023/11/30 10:11:44;;;;;;;4.27;2.10;;;3.50;99.90;;;;;;3918140;30;20191;-92
2023/11/30 10:13:45;;;;;;;3.10;2.00;;;3.50;99.90;;;;;;3932621;30;20185;-91
2023/11/30 10:15:46;;;;;;;6.97;2.40;;;3.60;99.90;;;;;;3961844;30;20762;-92
2023/11/30 10:17:48;;;;;;;3.23;1.73;;;3.50;99.90;;;;;;3932554;30;20183;-92
2023/11/30 10:19:49;;;;;;;11.27;2.83;;;3.60;99.90;;;;;;3932258;30;20236;-92
2023/11/30 10:21:50;;;;;;;7.60;2.83;;;3.50;99.90;;;;;;3918183;30;20202;-91
2023/11/30 10:23:51;;;;;;;7.37;3.40;;;3.60;99.90;;;;;;3947259;30;20663;-92
2023/11/30 10:25:53;;;;;;;8.83;3.13;;;3.40;99.90;;;;;;3917978;30;20178;-91
2023/11/30 10:27:56;;;;;;;9.27;3.23;;;3.50;99.90;;;;;;3947098;30;20318;-92
2023/11/30 10:30:00;;;;;;;41.43;3.73;;;4.00;99.90;;;;;;3932516;30;20199;-91
2023/11/30 10:32:05;;;;;;;7.30;3.23;;;4.20;99.90;;;;;;3932368;30;20237;-92
2023/11/30 10:34:11;;;;;;;8.63;3.33;;;4.00;99.90;;;;;;3932234;30;20261;-92
2023/11/30 10:36:12;;;;;;;7.20;3.00;;;4.30;99.90;;;;;;3917805;30;20742;-91